Time;durP1;ratioP1;P1;durP2;ratioP2;P2;SDS_P1;SDS_P2;PMS_P1;PMS_P2;Temp;Humidity;BMP_temperature;BMP_pressure;BME280_temperature;BME280_humidity;BME280_pressure;Samples;Min_cycle;Max_cycle;Signal;HPM_P1;HPM_P2
2022/07/06 00:00:24;;;;;;;27.45;22.98;;;;;;;18.71;85.03;99418.50;5081891;27;20447;-75
2022/07/06 00:02:49;;;;;;;34.00;23.85;;;;;;;18.70;84.77;99407.84;5098643;27;20049;-75
2022/07/06 00:05:14;;;;;;;29.58;23.80;;;;;;;18.68;84.15;99409.88;5080752;27;20039;-77
2022/07/06 00:07:39;;;;;;;33.92;23.55;;;;;;;18.69;84.30;99411.56;5099183;27;20039;-78
2022/07/06 00:10:04;;;;;;;30.35;22.35;;;;;;;18.68;84.19;99421.53;5069260;27;20042;-74
2022/07/06 00:12:29;;;;;;;28.77;23.00;;;;;;;18.66;83.93;99410.03;5086333;27;20042;-75
2022/07/06 00:14:53;;;;;;;30.08;22.77;;;;;;;18.66;83.84;99406.50;5107593;27;20042;-76
2022/07/06 00:17:18;;;;;;;29.75;22.85;;;;;;;18.67;83.76;99405.47;5108881;27;20053;-76
2022/07/06 00:19:43;;;;;;;32.33;22.67;;;;;;;18.66;84.02;99401.94;5088504;27;20045;-78
2022/07/06 00:22:08;;;;;;;30.33;22.48;;;;;;;18.67;83.92;99403.63;5097791;27;20058;-77
2022/07/06 00:24:32;;;;;;;33.42;24.38;;;;;;;18.68;83.91;99402.63;5091169;27;20520;-77
2022/07/06 00:26:57;;;;;;;29.70;22.13;;;;;;;18.67;83.77;99387.44;5088681;27;20540;-75
2022/07/06 00:29:22;;;;;;;33.20;23.42;;;;;;;18.68;83.49;99399.06;5091190;27;20038;-77
2022/07/06 00:31:47;;;;;;;28.55;21.77;;;;;;;18.67;83.47;99391.97;5110173;27;20058;-76
2022/07/06 00:34:12;;;;;;;30.98;22.90;;;;;;;18.67;83.44;99382.03;5088794;27;20064;-73
2022/07/06 00:36:37;;;;;;;32.17;23.20;;;;;;;18.70;82.43;99379.00;5105231;27;20046;-76
2022/07/06 00:39:03;;;;;;;28.48;22.33;;;;;;;18.77;81.80;99385.41;5101726;27;20061;-71
2022/07/06 00:41:28;;;;;;;28.00;21.38;;;;;;;18.78;81.10;99386.25;5061858;27;20043;-75
2022/07/06 00:43:57;;;;;;;32.97;23.80;;;;;;;18.76;81.49;99391.81;5098115;27;20042;-72
2022/07/06 00:46:30;;;;;;;30.75;21.63;;;;;;;18.78;81.91;99402.44;5071247;27;20043;-66
2022/07/06 00:48:55;;;;;;;30.10;22.92;;;;;;;18.72;82.19;99390.47;5077510;27;20047;-64
2022/07/06 00:51:22;;;;;;;28.05;21.48;;;;;;;18.74;81.68;99398.38;5077305;27;20039;-66
2022/07/06 00:53:48;;;;;;;30.33;23.95;;;;;;;18.74;81.31;99403.78;5060173;28;20543;-65
2022/07/06 00:56:13;;;;;;;30.63;21.92;;;;;;;18.77;81.53;99395.38;5060089;27;20426;-65
2022/07/06 00:58:37;;;;;;;27.15;21.73;;;;;;;18.78;81.52;99392.50;5077318;27;20039;-65
2022/07/06 01:01:02;;;;;;;29.10;22.10;;;;;;;18.82;81.49;99393.00;5060218;27;20049;-66
2022/07/06 01:03:27;;;;;;;32.13;22.02;;;;;;;18.84;81.12;99393.69;5096140;27;20043;-65
2022/07/06 01:05:52;;;;;;;29.10;22.17;;;;;;;18.85;81.13;99389.97;5095925;27;20049;-66
2022/07/06 01:08:17;;;;;;;29.63;22.88;;;;;;;18.85;81.05;99393.50;5076922;27;20062;-66
2022/07/06 01:10:43;;;;;;;33.17;23.27;;;;;;;18.87;80.91;99404.16;5077086;28;20042;-65
2022/07/06 01:13:08;;;;;;;25.65;22.08;;;;;;;18.86;80.67;99395.19;5043475;28;20051;-64
2022/07/06 01:15:32;;;;;;;30.30;21.95;;;;;;;18.89;80.78;99406.69;5060538;28;20043;-65
2022/07/06 01:17:57;;;;;;;28.95;22.17;;;;;;;18.90;80.96;99405.66;5095713;27;20082;-65
2022/07/06 01:20:29;;;;;;;27.00;22.55;;;;;;;18.92;81.24;99400.94;5077494;28;20058;-65
2022/07/06 01:22:56;;;;;;;33.25;22.92;;;;;;;18.92;81.45;99404.50;5060313;28;20418;-65
2022/07/06 01:25:21;;;;;;;28.05;22.38;;;;;;;18.92;81.43;99398.25;5077470;28;20454;-64
2022/07/06 01:27:47;;;;;;;26.63;21.67;;;;;;;18.92;81.76;99392.84;5098590;27;20042;-78
2022/07/06 01:30:16;;;;;;;28.65;21.80;;;;;;;18.95;81.62;99408.72;5083882;28;20134;-77
2022/07/06 01:32:42;;;;;;;30.90;24.02;;;;;;;18.94;81.63;99402.47;5077661;27;20068;-76
2022/07/06 01:35:10;;;;;;;29.02;21.65;;;;;;;18.94;81.80;99410.59;5084928;27;20043;-68
2022/07/06 01:37:34;;;;;;;24.58;20.52;;;;;;;18.93;81.53;99408.03;5091104;27;20035;-73
2022/07/06 01:40:01;;;;;;;36.70;22.00;;;;;;;18.91;81.07;99410.91;5116271;27;20038;-74
2022/07/06 01:42:27;;;;;;;30.35;23.85;;;;;;;18.91;80.65;99410.91;5079822;28;20035;-75
2022/07/06 01:44:53;;;;;;;28.08;21.15;;;;;;;18.91;81.21;99413.59;5080559;28;20112;-73
2022/07/06 01:47:18;;;;;;;28.77;21.73;;;;;;;18.89;80.86;99415.63;5047762;27;20031;-75
2022/07/06 01:49:43;;;;;;;29.65;21.08;;;;;;;18.88;80.78;99405.84;5085049;27;20111;-74
2022/07/06 01:52:08;;;;;;;28.08;21.42;;;;;;;18.86;81.07;99413.25;5085530;27;20035;-75
2022/07/06 01:54:34;;;;;;;26.75;21.73;;;;;;;18.83;80.92;99416.31;5099610;27;20046;-74
2022/07/06 01:56:59;;;;;;;26.70;21.42;;;;;;;18.82;80.72;99409.22;5065539;27;20035;-77
2022/07/06 01:59:24;;;;;;;30.23;20.45;;;;;;;18.83;81.21;99413.63;5067050;27;20501;-76
2022/07/06 02:01:49;;;;;;;27.90;22.38;;;;;;;18.88;80.31;99415.78;5083771;27;20450;-73
2022/07/06 02:04:14;;;;;;;27.33;22.20;;;;;;;18.90;80.32;99414.63;5081654;27;20071;-77
2022/07/06 02:06:39;;;;;;;27.95;21.50;;;;;;;18.94;80.36;99418.69;5081548;27;20046;-74
2022/07/06 02:09:06;;;;;;;28.40;22.25;;;;;;;18.98;80.21;99420.00;5065471;27;20054;-77
2022/07/06 02:11:32;;;;;;;29.42;22.85;;;;;;;19.06;80.10;99416.50;5082287;27;20042;-73
2022/07/06 02:13:56;;;;;;;30.85;23.00;;;;;;;19.15;79.82;99418.16;5120665;27;20101;-77
2022/07/06 02:16:22;;;;;;;26.40;21.40;;;;;;;19.24;79.83;99427.97;5106220;27;20042;-76
2022/07/06 02:18:46;;;;;;;27.88;21.00;;;;;;;19.31;79.80;99420.84;5104213;27;20054;-77
2022/07/06 02:21:11;;;;;;;26.45;21.42;;;;;;;19.40;79.55;99416.28;5103764;27;20038;-73
2022/07/06 02:23:36;;;;;;;27.88;21.95;;;;;;;19.46;78.97;99424.56;5103871;27;20043;-74
2022/07/06 02:26:01;;;;;;;26.38;21.38;;;;;;;19.52;78.58;99421.22;5123386;27;20042;-75
2022/07/06 02:28:26;;;;;;;28.15;21.85;;;;;;;19.55;78.48;99428.94;5123609;27;20468;-72
2022/07/06 02:30:51;;;;;;;27.67;21.15;;;;;;;19.56;78.42;99427.94;5101807;27;20039;-71
2022/07/06 02:33:15;;;;;;;29.50;21.40;;;;;;;19.56;78.50;99427.09;5047925;27;20061;-72
2022/07/06 02:35:42;;;;;;;27.67;21.40;;;;;;;19.56;78.71;99427.09;5103621;27;20043;-72
2022/07/06 02:38:09;;;;;;;27.48;22.42;;;;;;;19.55;78.80;99437.06;5070962;27;20043;-72
2022/07/06 02:40:34;;;;;;;30.92;24.95;;;;;;;19.56;79.02;99437.91;5075032;27;20043;-73
2022/07/06 02:43:01;;;;;;;30.63;23.92;;;;;;;19.59;79.26;99432.16;5093839;27;20054;-70
2022/07/06 02:45:26;;;;;;;31.25;22.98;;;;;;;19.64;79.63;99439.78;5067491;27;20035;-70
2022/07/06 02:47:55;;;;;;;30.23;25.25;;;;;;;19.69;79.13;99440.94;5082399;27;20789;-73
2022/07/06 02:50:19;;;;;;;32.70;25.25;;;;;;;19.77;79.45;99430.06;5067325;27;20049;-73
2022/07/06 02:52:45;;;;;;;36.00;26.13;;;;;;;19.90;79.10;99427.69;5083852;27;20038;-70
2022/07/06 02:55:10;;;;;;;33.35;25.00;;;;;;;20.08;78.90;99434.72;5068889;27;20088;-73
2022/07/06 02:57:35;;;;;;;30.17;25.10;;;;;;;20.25;78.10;99428.22;5090680;27;20410;-74
2022/07/06 03:00:00;;;;;;;31.13;24.05;;;;;;;20.42;76.78;99426.31;5099688;27;20038;-72
2022/07/06 03:02:25;;;;;;;30.58;24.02;;;;;;;20.56;75.46;99429.09;5121946;27;20038;-71
2022/07/06 03:04:50;;;;;;;34.45;23.85;;;;;;;20.69;74.66;99424.94;5123103;27;20051;-70
2022/07/06 03:07:15;;;;;;;29.30;23.13;;;;;;;20.80;74.03;99416.41;5115806;27;20049;-74
2022/07/06 03:09:41;;;;;;;30.02;22.55;;;;;;;20.88;73.38;99422.59;5104727;27;20523;-72
2022/07/06 03:12:07;;;;;;;35.67;22.77;;;;;;;20.96;73.05;99417.13;5101124;27;20497;-72
2022/07/06 03:14:33;;;;;;;28.65;22.77;;;;;;;21.05;72.54;99415.19;5083001;27;20530;-69
2022/07/06 03:16:59;;;;;;;29.58;21.95;;;;;;;21.16;72.14;99403.91;5084361;27;20050;-66
2022/07/06 03:19:24;;;;;;;30.45;23.48;;;;;;;21.27;71.78;99417.06;5118710;27;20053;-71
2022/07/06 03:21:49;;;;;;;32.63;21.33;;;;;;;21.42;71.90;99419.81;5100266;27;20864;-68
2022/07/06 03:24:14;;;;;;;27.33;21.25;;;;;;;21.53;71.06;99413.09;5100069;27;20553;-70
2022/07/06 03:26:39;;;;;;;33.20;23.33;;;;;;;21.63;70.49;99422.66;5082541;27;20382;-67
2022/07/06 03:29:04;;;;;;;31.23;22.25;;;;;;;21.71;70.31;99411.69;5100014;27;20049;-69
2022/07/06 03:31:29;;;;;;;29.42;20.88;;;;;;;21.79;69.70;99418.88;5082599;27;20069;-68
2022/07/06 03:33:54;;;;;;;28.33;22.38;;;;;;;21.86;69.77;99414.41;5055646;27;20504;-70
2022/07/06 03:36:20;;;;;;;27.70;20.55;;;;;;;21.96;69.36;99411.41;5070285;27;20056;-72
2022/07/06 03:38:45;;;;;;;28.08;22.33;;;;;;;22.05;69.20;99413.03;5089008;27;20098;-72
2022/07/06 03:41:10;;;;;;;28.70;20.70;;;;;;;22.17;68.83;99413.38;5072838;27;20400;-72
2022/07/06 03:43:35;;;;;;;29.38;21.40;;;;;;;22.26;68.93;99417.69;5053787;27;20401;-68
2022/07/06 03:46:00;;;;;;;23.30;18.95;;;;;;;22.40;68.20;99414.09;5087777;27;20496;-69
2022/07/06 03:48:25;;;;;;;27.27;20.70;;;;;;;22.52;67.25;99415.28;5088600;27;20046;-70
2022/07/06 03:50:50;;;;;;;22.73;18.25;;;;;;;22.63;67.22;99428.38;5086549;27;20067;-71
2022/07/06 03:53:15;;;;;;;27.20;19.45;;;;;;;22.75;67.03;99415.13;5071185;27;20408;-66
2022/07/06 03:55:40;;;;;;;24.58;19.17;;;;;;;22.93;66.76;99414.69;5087320;27;20035;-67
2022/07/06 03:58:07;;;;;;;24.15;19.90;;;;;;;23.13;66.36;99421.19;5072404;27;20091;-66
2022/07/06 04:00:35;;;;;;;25.60;19.98;;;;;;;23.35;65.58;99422.00;5066625;27;20520;-67
2022/07/06 04:03:04;;;;;;;24.50;18.98;;;;;;;23.53;65.21;99425.94;5078299;27;20074;-67
2022/07/06 04:05:34;;;;;;;23.90;17.80;;;;;;;23.68;64.89;99419.53;5078289;27;20050;-68
2022/07/06 04:07:59;;;;;;;23.23;16.00;;;;;;;23.78;63.43;99420.88;5096399;27;20046;-68
2022/07/06 04:10:31;;;;;;;20.48;15.23;;;;;;;23.90;62.26;99423.88;5077677;27;20062;-69
2022/07/06 04:12:56;;;;;;;21.33;15.68;;;;;;;23.98;62.38;99420.97;5061582;27;20042;-67
2022/07/06 04:15:22;;;;;;;21.48;15.10;;;;;;;24.09;61.69;99425.84;5079379;27;20158;-69
2022/07/06 04:17:52;;;;;;;22.77;15.10;;;;;;;24.19;60.76;99415.41;5097992;27;20157;-69
2022/07/06 04:20:21;;;;;;;20.00;16.35;;;;;;;24.32;60.38;99420.13;5079018;27;20047;-69
2022/07/06 04:22:47;;;;;;;18.77;16.60;;;;;;;24.45;60.65;99419.34;5078624;27;20577;-69
2022/07/06 04:25:12;;;;;;;23.05;17.70;;;;;;;24.58;60.46;99419.38;5045875;27;20034;-68
2022/07/06 04:27:37;;;;;;;22.48;17.00;;;;;;;24.72;59.74;99412.09;5079843;27;20047;-70
2022/07/06 04:30:06;;;;;;;25.70;18.90;;;;;;;24.87;59.42;99421.75;5082171;27;20087;-70
2022/07/06 04:32:31;;;;;;;20.60;16.60;;;;;;;24.96;59.53;99416.97;5077990;27;20047;-70
2022/07/06 04:34:56;;;;;;;24.45;18.42;;;;;;;25.16;58.98;99414.28;5061056;27;20046;-69
2022/07/06 04:37:21;;;;;;;22.08;17.98;;;;;;;25.41;58.48;99422.66;5096257;27;20043;-72
2022/07/06 04:39:45;;;;;;;19.52;15.55;;;;;;;25.60;56.87;99419.09;5078037;27;20083;-72
2022/07/06 04:42:10;;;;;;;21.27;16.10;;;;;;;25.73;56.07;99419.13;5077876;27;20046;-72
2022/07/06 04:44:35;;;;;;;24.52;18.20;;;;;;;25.90;55.88;99414.88;5078768;27;20043;-72
2022/07/06 04:47:00;;;;;;;22.60;18.00;;;;;;;26.10;55.25;99403.88;5081059;27;20083;-72
2022/07/06 04:49:25;;;;;;;23.38;17.75;;;;;;;26.31;54.79;99411.81;5079589;27;20049;-72
2022/07/06 04:51:50;;;;;;;22.83;17.55;;;;;;;26.61;54.34;99411.25;5078771;27;20047;-72
2022/07/06 04:54:17;;;;;;;24.00;18.45;;;;;;;27.00;54.00;99412.94;5078348;27;20509;-73
2022/07/06 04:56:42;;;;;;;25.35;18.75;;;;;;;27.40;53.04;99408.84;5096331;27;20876;-70
2022/07/06 04:59:06;;;;;;;27.05;18.55;;;;;;;27.80;52.48;99411.22;5095796;27;20529;-70
2022/07/06 05:01:31;;;;;;;25.92;19.40;;;;;;;28.16;51.21;99411.22;5077473;28;20494;-70
2022/07/06 05:03:56;;;;;;;20.67;17.33;;;;;;;28.49;50.89;99482.16;5077219;28;20469;-70
2022/07/06 05:06:23;;;;;;;21.55;17.83;;;;;;;28.86;49.90;99476.66;5077272;28;20504;-70
2022/07/06 05:08:48;;;;;;;19.63;17.40;;;;;;;29.15;48.28;99392.59;5059720;28;20506;-71
2022/07/06 05:11:14;;;;;;;21.70;16.40;;;;;;;29.50;47.06;99403.66;5076927;28;20493;-73
2022/07/06 05:13:40;;;;;;;23.95;17.20;;;;;;;29.79;47.19;99405.47;5061084;28;20062;-71
2022/07/06 05:16:05;;;;;;;19.30;17.23;;;;;;;30.02;46.81;99421.13;5078299;28;20118;-73
2022/07/06 05:18:30;;;;;;;23.77;17.45;;;;;;;30.22;45.16;99398.75;5094898;28;20134;-72
2022/07/06 05:20:56;;;;;;;21.92;16.13;;;;;;;30.12;44.06;99407.63;5077977;28;20043;-72
2022/07/06 05:23:20;;;;;;;20.05;16.77;;;;;;;29.92;44.34;99402.44;5078881;27;20604;-71
2022/07/06 05:25:47;;;;;;;22.92;17.77;;;;;;;29.73;43.67;99400.09;5100704;27;20558;-73
2022/07/06 05:28:12;;;;;;;39.22;28.83;;;;;;;29.62;44.71;99399.00;5081970;27;20039;-71
2022/07/06 05:30:36;;;;;;;19.30;16.27;;;;;;;29.61;45.74;99398.19;5083350;27;20104;-72
2022/07/06 05:33:02;;;;;;;20.48;16.00;;;;;;;29.63;45.73;99395.19;5082371;27;20038;-72
2022/07/06 05:35:29;;;;;;;18.67;15.70;;;;;;;29.65;44.98;99400.44;5081389;27;20413;-73
2022/07/06 05:37:54;;;;;;;21.27;16.60;;;;;;;29.69;45.87;99398.88;5081717;27;20181;-72
2022/07/06 05:40:18;;;;;;;21.85;15.77;;;;;;;29.76;44.72;99394.94;5081246;27;20078;-70
2022/07/06 05:42:44;;;;;;;17.67;15.05;;;;;;;29.87;44.93;99396.03;5081083;27;20043;-69
2022/07/06 05:45:09;;;;;;;19.02;14.40;;;;;;;29.98;43.61;99397.13;5064150;27;20091;-70
2022/07/06 05:50:17;;;;;;;21.90;15.73;;;;;;;30.15;43.63;99393.34;5081153;27;20412;-70
2022/07/06 05:53:02;;;;;;;19.20;15.07;;;;;;;30.21;42.65;99400.66;5081380;27;20045;-69
2022/07/06 05:55:28;;;;;;;16.48;14.65;;;;;;;30.12;42.31;99393.03;5064281;27;20134;-68
2022/07/06 05:57:55;;;;;;;19.95;14.70;;;;;;;30.16;42.47;99400.53;5081074;27;20511;-69
2022/07/06 06:00:23;;;;;;;17.38;15.13;;;;;;;30.35;42.43;99397.63;5099644;27;20489;-70
2022/07/06 06:02:53;;;;;;;15.90;14.25;;;;;;;30.56;41.40;99403.31;5064215;27;20039;-69
2022/07/06 06:05:18;;;;;;;18.73;13.80;;;;;;;30.81;40.97;99391.13;5081154;27;20078;-69
2022/07/06 06:07:48;;;;;;;17.00;13.38;;;;;;;31.05;40.08;99396.25;5080974;27;20050;-70
2022/07/06 06:10:14;;;;;;;17.88;15.10;;;;;;;31.30;39.81;99392.28;5098796;27;20402;-68
2022/07/06 06:12:41;;;;;;;15.48;13.60;;;;;;;31.58;39.39;99389.47;5080751;27;20041;-69
2022/07/06 06:15:07;;;;;;;21.17;15.07;;;;;;;31.79;38.71;99465.06;5079888;27;20176;-69
2022/07/06 06:17:32;;;;;;;16.80;15.10;;;;;;;31.83;38.90;99488.25;5063723;27;20051;-71
2022/07/06 06:19:58;;;;;;;21.50;14.75;;;;;;;32.08;38.88;99380.25;5080383;27;20485;-71
2022/07/06 06:22:22;;;;;;;15.63;13.02;;;;;;;32.58;38.56;99385.59;5099203;27;20034;-71
2022/07/06 06:24:47;;;;;;;16.15;13.48;;;;;;;33.14;37.34;99389.78;5100576;27;20179;-69
2022/07/06 06:27:12;;;;;;;14.07;12.40;;;;;;;33.29;35.77;99388.28;5085531;27;20042;-69
2022/07/06 06:29:37;;;;;;;14.10;12.52;;;;;;;32.88;36.05;99387.88;5101688;27;20121;-69
2022/07/06 06:32:02;;;;;;;13.00;11.60;;;;;;;32.68;35.82;99391.22;5069955;27;20207;-70
2022/07/06 06:34:27;;;;;;;14.95;12.18;;;;;;;32.68;36.23;99384.88;5080210;27;20076;-69
2022/07/06 06:36:52;;;;;;;13.63;11.63;;;;;;;33.21;34.46;99386.78;5079921;27;20074;-70
2022/07/06 06:39:17;;;;;;;15.48;13.77;;;;;;;33.82;34.47;99390.91;5098520;27;20053;-67
2022/07/06 06:41:41;;;;;;;17.80;14.73;;;;;;;34.47;33.31;99389.56;5098608;27;20125;-68
2022/07/06 06:44:06;;;;;;;17.38;15.57;;;;;;;35.15;32.94;99387.53;5079883;27;20070;-68
2022/07/06 06:46:38;;;;;;;16.95;15.05;;;;;;;35.85;31.39;99385.03;5088887;27;20038;-69
2022/07/06 06:49:02;;;;;;;14.75;13.23;;;;;;;36.64;29.82;99384.19;5119251;27;20104;-70
2022/07/06 06:51:27;;;;;;;13.32;12.00;;;;;;;37.65;29.18;99389.03;5118474;27;20074;-71
2022/07/06 06:53:52;;;;;;;16.20;14.48;;;;;;;38.68;28.87;99464.75;5082761;27;20378;-71
2022/07/06 06:56:17;;;;;;;17.65;15.73;;;;;;;39.69;26.42;99399.09;5099361;27;20124;-72
2022/07/06 06:58:42;;;;;;;29.52;20.45;;;;;;;40.34;25.37;99468.00;5118080;27;20047;-70
2022/07/06 07:01:07;;;;;;;17.60;14.57;;;;;;;40.40;23.74;99472.34;5118997;27;20039;-70
2022/07/06 07:03:31;;;;;;;15.30;13.77;;;;;;;40.48;23.13;99460.44;5117826;27;20045;-70
2022/07/06 07:05:57;;;;;;;17.45;13.50;;;;;;;40.59;23.35;99464.69;5099738;27;20054;-69
2022/07/06 07:08:21;;;;;;;20.05;15.27;;;;;;;40.44;23.04;99471.41;5118038;27;20127;-70
2022/07/06 07:10:46;;;;;;;18.23;13.77;;;;;;;40.49;23.15;99460.13;5117966;27;20070;-70
2022/07/06 07:13:11;;;;;;;14.30;12.90;;;;;;;40.13;23.72;99473.13;5099942;27;20053;-72
2022/07/06 07:15:36;;;;;;;16.67;14.95;;;;;;;40.23;23.84;99479.34;5118002;27;20042;-71
2022/07/06 07:18:00;;;;;;;14.60;13.10;;;;;;;40.27;23.21;99479.56;5117516;27;20121;-70
2022/07/06 07:20:25;;;;;;;13.35;12.10;;;;;;;40.49;22.73;99490.03;5117578;27;20038;-71
2022/07/06 07:22:50;;;;;;;16.38;13.93;;;;;;;40.35;23.00;99475.25;5099116;27;20049;-71
2022/07/06 07:25:15;;;;;;;15.45;12.57;;;;;;;40.21;23.46;99486.38;5117820;27;20042;-70
2022/07/06 07:27:40;;;;;;;14.80;13.40;;;;;;;39.34;24.59;99380.16;5117912;27;20117;-71
2022/07/06 07:30:06;;;;;;;18.42;14.10;;;;;;;39.62;25.15;99383.88;5117732;27;20083;-72
2022/07/06 07:32:30;;;;;;;18.60;16.77;;;;;;;40.58;25.14;99391.19;5117742;27;20117;-71
2022/07/06 07:34:55;;;;;;;17.23;15.63;;;;;;;41.42;23.73;99387.84;5117712;27;20125;-71
2022/07/06 07:37:20;;;;;;;18.25;16.38;;;;;;;41.38;24.52;99386.81;5117745;27;20047;-70
2022/07/06 07:39:45;;;;;;;20.92;18.77;;;;;;;41.73;24.17;99390.69;5099257;27;20046;-72
2022/07/06 07:42:10;;;;;;;16.83;15.13;;;;;;;41.76;22.84;99392.03;5117542;27;20099;-70
2022/07/06 07:44:34;;;;;;;20.02;17.17;;;;;;;41.56;24.43;99382.19;5117497;27;20049;-70
2022/07/06 07:46:59;;;;;;;18.45;14.90;;;;;;;42.52;23.30;99395.50;5097999;27;20087;-71
2022/07/06 07:49:24;;;;;;;19.58;17.75;;;;;;;42.93;22.18;99392.25;5117806;27;20093;-70
2022/07/06 07:51:49;;;;;;;17.33;15.55;;;;;;;43.09;21.51;99393.41;5082592;27;20102;-71
2022/07/06 07:54:14;;;;;;;17.00;15.50;;;;;;;42.71;21.85;99394.03;5117704;27;20392;-70
2022/07/06 07:56:41;;;;;;;21.73;19.45;;;;;;;41.69;22.82;99381.25;5098665;27;20133;-72
2022/07/06 07:59:07;;;;;;;19.85;17.80;;;;;;;41.39;24.70;99390.44;5118007;27;20043;-70
2022/07/06 08:01:32;;;;;;;17.35;15.75;;;;;;;41.14;23.00;99381.53;5065999;27;20039;-74
2022/07/06 08:03:57;;;;;;;19.05;17.25;;;;;;;40.99;23.40;99379.06;5118764;27;20039;-70
2022/07/06 08:06:22;;;;;;;18.27;16.60;;;;;;;40.62;24.24;99381.03;5099587;27;20053;-70
2022/07/06 08:08:47;;;;;;;18.23;16.48;;;;;;;40.04;25.90;99377.25;5118587;27;20497;-70
2022/07/06 08:11:12;;;;;;;16.17;14.68;;;;;;;39.90;25.16;99375.25;5099073;27;20133;-73
2022/07/06 08:13:36;;;;;;;16.30;14.77;;;;;;;39.66;25.32;99373.75;5082292;27;20121;-74
2022/07/06 08:16:01;;;;;;;17.00;15.50;;;;;;;38.97;27.03;99378.25;5084738;27;20097;-73
2022/07/06 08:18:26;;;;;;;16.80;15.25;;;;;;;37.89;27.87;99371.53;5107709;27;20054;-72
2022/07/06 08:20:51;;;;;;;19.20;17.40;;;;;;;37.49;28.76;99379.13;5088599;27;20102;-70
2022/07/06 08:23:16;;;;;;;18.38;16.58;;;;;;;37.93;28.02;99365.06;5098817;27;20096;-70
2022/07/06 08:25:40;;;;;;;18.50;16.75;;;;;;;38.71;27.20;99372.22;5096625;27;20065;-70
2022/07/06 08:28:05;;;;;;;18.10;16.35;;;;;;;39.43;26.38;99375.56;5078568;27;20119;-71
2022/07/06 08:30:31;;;;;;;22.00;19.90;;;;;;;40.47;25.95;99374.97;5078482;27;20417;-70
2022/07/06 08:32:55;;;;;;;19.08;17.38;;;;;;;41.21;23.69;99376.31;5096186;27;20509;-71
2022/07/06 08:35:20;;;;;;;19.13;17.42;;;;;;;41.08;23.80;99376.38;5061005;27;20547;-70
2022/07/06 08:37:45;;;;;;;20.15;18.25;;;;;;;40.45;24.79;99375.28;5099077;27;20050;-70
2022/07/06 08:40:10;;;;;;;18.40;16.70;;;;;;;40.53;24.47;99366.13;5063527;27;20043;-69
2022/07/06 08:42:35;;;;;;;18.45;16.67;;;;;;;41.11;23.80;99367.31;5077282;27;20088;-71
2022/07/06 08:45:03;;;;;;;20.20;18.30;;;;;;;39.88;25.96;99371.94;5096000;27;20046;-70
2022/07/06 08:47:30;;;;;;;19.00;17.17;;;;;;;38.82;27.93;99366.19;5111835;27;20038;-71
2022/07/06 08:49:56;;;;;;;20.58;18.67;;;;;;;38.25;26.84;99366.41;5097802;27;20382;-71
2022/07/06 08:52:22;;;;;;;20.08;18.13;;;;;;;37.69;28.89;99359.50;5116162;27;20039;-72
2022/07/06 08:54:47;;;;;;;26.95;23.40;;;;;;;37.92;28.63;99354.25;5116444;27;20042;-72
2022/07/06 08:57:12;;;;;;;21.65;18.95;;;;;;;37.84;29.10;99358.50;5116055;27;20133;-70
2022/07/06 08:59:39;;;;;;;21.08;18.88;;;;;;;37.54;29.12;99353.22;5097744;27;20038;-72
2022/07/06 09:02:04;;;;;;;20.20;18.23;;;;;;;37.78;29.17;99352.16;5117434;27;20071;-71
2022/07/06 09:04:30;;;;;;;25.58;22.48;;;;;;;37.72;29.62;99353.34;5100767;27;20050;-72
2022/07/06 09:06:56;;;;;;;28.60;24.95;;;;;;;38.63;28.91;99356.97;5119195;27;20496;-71
2022/07/06 09:09:24;;;;;;;22.98;20.70;;;;;;;39.41;28.92;99352.72;5116833;27;20042;-71
2022/07/06 09:11:49;;;;;;;22.20;20.02;;;;;;;38.95;27.86;99353.41;5116516;27;20053;-71
2022/07/06 09:14:14;;;;;;;21.70;19.50;;;;;;;38.02;28.33;99340.22;5116226;27;20414;-71
2022/07/06 09:16:39;;;;;;;23.52;21.20;;;;;;;37.74;30.00;99344.69;5116388;27;20117;-71
2022/07/06 09:19:06;;;;;;;19.80;17.90;;;;;;;38.43;28.03;99348.88;5116528;27;20102;-73
2022/07/06 09:21:32;;;;;;;19.10;17.20;;;;;;;40.49;25.28;99353.94;5116330;27;20073;-71
2022/07/06 09:23:58;;;;;;;18.85;16.92;;;;;;;43.02;22.97;99357.44;5116905;27;20039;-70
2022/07/06 09:26:24;;;;;;;19.27;17.45;;;;;;;44.89;21.03;99356.56;5080823;27;20038;-71
2022/07/06 09:28:50;;;;;;;21.02;19.30;;;;;;;44.67;20.59;99352.91;5116599;27;20050;-70
2022/07/06 09:31:15;;;;;;;20.88;18.73;;;;;;;43.86;20.35;99358.78;5109128;27;20121;-70
2022/07/06 09:34:05;;;;;;;23.50;21.15;;;;;;;44.04;19.98;99351.94;5077396;28;20042;-70
2022/07/06 09:36:47;;;;;;;19.15;17.52;;;;;;;44.99;19.83;99353.34;5077699;28;20730;-70
2022/07/06 09:39:28;;;;;;;23.43;19.93;;;;;;;44.30;19.89;99360.25;5095875;28;20050;-70
2022/07/06 09:41:54;;;;;;;20.45;18.75;;;;;;;43.18;20.78;99351.34;5095561;28;20099;-71
2022/07/06 09:44:25;;;;;;;20.52;18.80;;;;;;;43.31;21.04;99353.16;5077290;28;20087;-71
2022/07/06 09:46:50;;;;;;;22.05;20.25;;;;;;;44.05;20.20;99335.91;5076732;27;20127;-71
2022/07/06 09:49:22;;;;;;;23.15;20.95;;;;;;;44.26;19.92;99345.22;5076791;28;20039;-71
2022/07/06 09:51:49;;;;;;;23.60;21.67;;;;;;;43.56;21.47;99337.41;5077147;28;20911;-70
2022/07/06 09:54:15;;;;;;;24.98;22.98;;;;;;;43.45;21.22;99340.59;5095009;28;20050;-69
2022/07/06 09:56:47;;;;;;;23.58;21.63;;;;;;;42.78;21.88;99331.88;5042973;28;20035;-70
2022/07/06 09:59:14;;;;;;;21.42;19.73;;;;;;;42.68;21.30;99334.97;5095260;28;20043;-70
2022/07/06 10:01:40;;;;;;;28.52;25.73;;;;;;;40.35;23.87;99330.78;5069948;27;20038;-72
2022/07/06 10:04:06;;;;;;;24.90;20.25;;;;;;;38.15;26.12;99325.59;5116285;27;20054;-73
2022/07/06 10:06:31;;;;;;;20.13;18.17;;;;;;;37.14;28.12;99309.91;5097033;27;20404;-75
2022/07/06 10:08:58;;;;;;;19.38;17.40;;;;;;;38.15;27.80;99312.47;5116600;27;20035;-74
2022/07/06 10:11:23;;;;;;;19.70;17.75;;;;;;;39.90;25.93;99313.84;5120278;27;20042;-74
2022/07/06 10:13:54;;;;;;;20.13;18.35;;;;;;;41.72;23.54;99310.63;5067436;27;20720;-74
2022/07/06 10:16:19;;;;;;;22.63;20.52;;;;;;;41.42;23.35;99308.66;5084644;27;20171;-73
2022/07/06 10:18:44;;;;;;;22.35;20.05;;;;;;;40.92;24.44;99309.63;5119670;27;20872;-72
2022/07/06 10:21:10;;;;;;;22.35;20.08;;;;;;;42.00;23.46;99309.28;5101880;27;20498;-73
2022/07/06 10:23:36;;;;;;;21.75;19.55;;;;;;;43.84;20.45;99309.72;5119464;27;20039;-75
2022/07/06 10:26:03;;;;;;;19.05;17.23;;;;;;;45.29;18.57;99312.66;5101073;27;20039;-75
2022/07/06 10:28:29;;;;;;;19.02;17.35;;;;;;;46.18;17.43;99307.28;5119373;27;20054;-74
2022/07/06 10:30:54;;;;;;;21.00;19.10;;;;;;;47.02;16.96;99310.31;5102188;27;20042;-72
2022/07/06 10:33:20;;;;;;;22.90;20.58;;;;;;;47.74;16.16;99308.28;5119665;27;20054;-74
2022/07/06 10:35:45;;;;;;;23.17;21.15;;;;;;;47.56;16.18;99311.41;5119100;27;20049;-74
2022/07/06 10:38:10;;;;;;;21.95;20.10;;;;;;;46.03;17.51;99299.56;5118651;27;20038;-74
2022/07/06 10:43:21;;;;;;;20.25;18.40;;;;;;;41.18;22.73;99287.47;5118899;27;20046;-71
2022/07/06 10:45:45;;;;;;;18.42;16.90;;;;;;;39.49;25.18;99279.50;5101016;27;20042;-69
2022/07/06 10:48:10;;;;;;;16.67;15.18;;;;;;;38.31;27.10;99281.66;5088525;27;20034;-72
2022/07/06 10:50:36;;;;;;;18.63;16.67;;;;;;;37.63;28.64;99280.00;5083060;27;20049;-71
2022/07/06 10:53:00;;;;;;;26.95;24.20;;;;;;;37.11;28.30;99269.66;5100270;27;20552;-70
2022/07/06 10:55:34;;;;;;;22.35;19.88;;;;;;;36.63;29.49;99276.97;5118210;27;20587;-70
2022/07/06 10:58:00;;;;;;;31.15;27.83;;;;;;;35.95;29.17;99268.47;5119262;27;20055;-71
2022/07/06 11:00:25;;;;;;;18.08;16.27;;;;;;;35.47;29.45;99262.50;5119610;27;20050;-71
2022/07/06 11:02:50;;;;;;;18.92;16.25;;;;;;;35.04;30.06;99252.03;5118537;27;20051;-71
2022/07/06 11:05:40;;;;;;;16.48;14.80;;;;;;;34.83;30.56;99257.59;5099888;27;20039;-71
2022/07/06 11:08:05;;;;;;;16.27;13.95;;;;;;;34.00;34.12;99258.75;5082576;27;20053;-69
2022/07/06 11:10:46;;;;;;;19.98;15.60;;;;;;;33.72;32.67;99258.09;5118432;27;20053;-69
2022/07/06 11:13:25;;;;;;;14.30;12.65;;;;;;;33.57;30.38;99260.78;5117992;27;20050;-68
2022/07/06 11:15:50;;;;;;;17.85;12.98;;;;;;;32.96;31.85;99251.25;5117833;27;20203;-69